createdAt,value
2023-09-23T00:01:27.031Z,70.33
2023-09-23T00:03:53.973Z,69.83
2023-09-23T00:06:23.722Z,69.90
2023-09-23T00:08:50.318Z,70.25
2023-09-23T00:11:16.881Z,70.81
2023-09-23T00:13:43.947Z,70.40
2023-09-23T00:16:15.876Z,70.76
2023-09-23T00:18:47.026Z,70.67
2023-09-23T00:21:14.224Z,70.78
2023-09-23T00:23:41.382Z,70.64
2023-09-23T00:26:08.619Z,70.72
2023-09-23T00:28:35.532Z,70.81
2023-09-23T00:31:13.121Z,70.95
2023-09-23T00:33:40.352Z,71.42
2023-09-23T00:36:08.651Z,71.43
2023-09-23T00:38:35.745Z,72.09
2023-09-23T00:41:04.881Z,72.01
2023-09-23T00:43:33.809Z,72.24
2023-09-23T00:46:01.809Z,71.35
2023-09-23T00:48:32.256Z,71.51
2023-09-23T00:50:58.851Z,71.33
2023-09-23T00:53:26.830Z,70.99
2023-09-23T00:55:54.038Z,71.90
2023-09-23T00:58:23.046Z,71.86
2023-09-23T01:00:50.546Z,70.17
2023-09-23T01:03:17.412Z,71.28
2023-09-23T01:05:48.098Z,71.50
2023-09-23T01:08:31.172Z,71.74
2023-09-23T01:10:57.785Z,72.55
2023-09-23T01:13:25.898Z,72.57
2023-09-23T01:15:52.865Z,73.04
2023-09-23T01:18:19.423Z,73.26
2023-09-23T01:20:52.577Z,72.86
2023-09-23T01:23:19.211Z,72.49
2023-09-23T01:25:45.778Z,71.99
2023-09-23T01:28:12.555Z,72.58
2023-09-23T01:30:41.597Z,71.77
2023-09-23T01:33:10.036Z,71.29
2023-09-23T01:35:36.998Z,72.41
2023-09-23T01:38:07.459Z,71.69
2023-09-23T01:40:36.200Z,71.98
2023-09-23T01:43:03.317Z,71.07
2023-09-23T01:45:30.613Z,71.32
2023-09-23T01:47:58.444Z,71.12
2023-09-23T01:50:27.263Z,71.41
2023-09-23T01:52:57.222Z,70.99
2023-09-23T01:55:23.797Z,71.54
2023-09-23T01:57:50.338Z,70.57
2023-09-23T02:00:25.631Z,69.90
2023-09-23T02:02:55.422Z,69.85
2023-09-23T02:05:23.450Z,69.26
2023-09-23T02:07:51.446Z,69.50
2023-09-23T02:10:18.899Z,69.44
2023-09-23T02:12:46.048Z,69.52
2023-09-23T02:15:18.449Z,68.57
2023-09-23T02:17:48.865Z,69.06
2023-09-23T02:20:24.229Z,69.07
2023-09-23T02:22:56.368Z,71.36
2023-09-23T02:25:26.717Z,69.88
2023-09-23T02:27:54.119Z,69.11
2023-09-23T02:30:20.831Z,69.35
2023-09-23T02:32:48.288Z,69.77
2023-09-23T02:35:16.911Z,69.53
2023-09-23T02:37:49.472Z,70.05
2023-09-23T02:40:16.473Z,70.65
2023-09-23T02:42:44.874Z,71.37
2023-09-23T02:45:13.580Z,71.74
2023-09-23T02:47:41.385Z,72.72
2023-09-23T02:50:11.013Z,73.35
2023-09-23T02:52:40.124Z,72.78
2023-09-23T02:55:08.788Z,74.62
2023-09-23T02:57:38.528Z,73.64
2023-09-23T03:00:17.095Z,75.20
2023-09-23T03:02:46.938Z,71.92
2023-09-23T03:05:18.127Z,70.51
2023-09-23T03:07:49.312Z,74.05
2023-09-23T03:10:20.055Z,75.24
2023-09-23T03:12:58.119Z,76.35
2023-09-23T03:15:34.855Z,75.02
2023-09-23T03:18:02.180Z,74.96
2023-09-23T03:20:28.962Z,74.71
2023-09-23T03:22:55.540Z,74.85
2023-09-23T03:25:22.162Z,77.73
2023-09-23T03:27:50.031Z,76.47
2023-09-23T03:30:18.164Z,77.87
2023-09-23T03:32:46.719Z,79.10
2023-09-23T03:35:25.098Z,79.59
2023-09-23T03:37:52.013Z,79.38
2023-09-23T03:40:25.638Z,80.56
2023-09-23T03:42:52.381Z,78.53
2023-09-23T03:45:19.177Z,80.21
2023-09-23T03:47:47.689Z,81.62
2023-09-23T03:50:15.631Z,80.13
2023-09-23T03:52:43.394Z,80.19
2023-09-23T03:55:13.190Z,80.12
2023-09-23T03:57:40.216Z,80.46
2023-09-23T04:00:16.339Z,80.29
2023-09-23T04:02:44.358Z,80.14
2023-09-23T04:05:11.102Z,80.63
2023-09-23T04:07:41.362Z,79.31
2023-09-23T04:10:10.290Z,80.70
2023-09-23T04:12:38.126Z,79.29
2023-09-23T04:15:06.286Z,80.44
2023-09-23T04:17:32.787Z,80.07
2023-09-23T04:19:59.310Z,80.19
2023-09-23T04:22:25.876Z,80.31
2023-09-23T04:24:52.375Z,79.19
2023-09-23T04:27:18.864Z,81.13
2023-09-23T04:29:45.366Z,80.50
2023-09-23T04:32:14.230Z,80.62
2023-09-23T04:34:41.017Z,81.03
2023-09-23T04:37:07.586Z,81.62
2023-09-23T04:39:34.125Z,80.82
2023-09-23T04:42:01.792Z,81.37
2023-09-23T04:44:28.350Z,81.70
2023-09-23T04:46:55.049Z,82.22
2023-09-23T04:49:22.678Z,82.03
2023-09-23T04:51:49.262Z,82.32
2023-09-23T04:54:15.847Z,81.50
2023-09-23T04:56:43.060Z,82.77
2023-09-23T04:59:09.589Z,81.88
2023-09-23T05:01:36.058Z,81.73
2023-09-23T05:04:03.651Z,81.98
2023-09-23T05:06:30.245Z,81.52
2023-09-23T05:08:56.782Z,82.07
2023-09-23T05:11:24.693Z,81.64
2023-09-23T05:13:51.393Z,81.61
2023-09-23T05:16:18.262Z,81.57
2023-09-23T05:18:45.002Z,81.27
2023-09-23T05:21:11.711Z,82.25
2023-09-23T05:23:38.463Z,81.82
2023-09-23T05:26:06.136Z,81.37
2023-09-23T05:28:32.735Z,80.47
2023-09-23T05:31:00.097Z,81.45
2023-09-23T05:33:26.803Z,80.64
2023-09-23T05:35:53.383Z,82.38
2023-09-23T05:38:20.810Z,82.26
2023-09-23T05:40:47.430Z,81.34
2023-09-23T05:43:13.934Z,81.42
2023-09-23T05:45:40.654Z,80.81
2023-09-23T05:48:07.381Z,81.05
2023-09-23T05:50:34.033Z,80.70
2023-09-23T05:53:00.585Z,81.03
2023-09-23T05:55:30.035Z,81.01
2023-09-23T05:57:56.545Z,81.13
2023-09-23T06:00:23.226Z,81.73
2023-09-23T06:02:49.905Z,82.00
2023-09-23T06:05:16.783Z,81.97
2023-09-23T06:07:43.877Z,83.17
2023-09-23T06:10:12.335Z,83.43
2023-09-23T06:12:39.846Z,83.59
2023-09-23T06:15:06.940Z,83.79
2023-09-23T06:17:33.843Z,84.36
2023-09-23T06:20:02.150Z,82.11
2023-09-23T06:22:29.053Z,81.59
2023-09-23T06:24:56.122Z,82.55
2023-09-23T06:27:22.959Z,82.91
2023-09-23T06:29:49.467Z,83.13
2023-09-23T06:32:16.076Z,82.64
2023-09-23T06:34:42.628Z,83.07
2023-09-23T06:37:09.133Z,83.48
2023-09-23T06:39:35.747Z,83.35
2023-09-23T06:42:02.315Z,84.15
2023-09-23T06:44:29.042Z,84.51
2023-09-23T06:46:55.700Z,85.72
2023-09-23T06:49:22.416Z,85.43
2023-09-23T06:51:49.024Z,85.13
2023-09-23T06:54:15.633Z,85.92
2023-09-23T06:56:42.151Z,86.41
2023-09-23T06:59:09.175Z,87.18
2023-09-23T07:01:36.204Z,86.66
2023-09-23T07:04:03.565Z,86.69
2023-09-23T07:06:30.167Z,86.28
2023-09-23T07:08:56.917Z,86.09
2023-09-23T07:11:24.804Z,85.67
2023-09-23T07:13:51.664Z,85.94
2023-09-23T07:16:18.424Z,86.89
2023-09-23T07:18:45.754Z,85.97
2023-09-23T07:21:13.107Z,86.47
2023-09-23T07:23:39.942Z,85.94
2023-09-23T07:26:07.090Z,85.21
2023-09-23T07:28:34.067Z,86.19
2023-09-23T07:31:00.865Z,85.85
2023-09-23T07:33:27.821Z,85.22
2023-09-23T07:35:57.133Z,85.72
2023-09-23T07:38:23.677Z,85.12
2023-09-23T07:40:50.630Z,85.18
2023-09-23T07:43:17.209Z,85.56
2023-09-23T07:45:43.815Z,85.80
2023-09-23T07:48:10.651Z,86.75
2023-09-23T07:50:37.316Z,87.88
2023-09-23T07:53:04.059Z,87.40
2023-09-23T07:55:31.386Z,87.48
2023-09-23T07:57:58.148Z,87.93
2023-09-23T08:00:27.232Z,87.68
2023-09-23T08:02:55.092Z,87.17
2023-09-23T08:05:25.455Z,87.98
2023-09-23T08:07:52.604Z,87.58
2023-09-23T08:10:19.415Z,87.52
2023-09-23T08:12:46.085Z,87.63
2023-09-23T08:15:12.882Z,87.63
2023-09-23T08:17:40.799Z,87.21
2023-09-23T08:20:37.774Z,86.28
2023-09-23T08:23:04.965Z,86.83
2023-09-23T08:25:31.530Z,86.04
2023-09-23T08:27:58.194Z,85.31
2023-09-23T08:30:24.797Z,87.49
2023-09-23T08:32:51.677Z,85.92
2023-09-23T08:35:18.356Z,86.23
2023-09-23T08:37:47.299Z,87.33
2023-09-23T08:40:16.348Z,86.56
2023-09-23T08:42:42.938Z,86.20
2023-09-23T08:45:10.548Z,87.35
2023-09-23T08:47:38.612Z,87.01
2023-09-23T08:50:11.572Z,87.88
2023-09-23T08:52:38.972Z,87.82
2023-09-23T08:55:08.553Z,87.30
2023-09-23T08:57:35.263Z,87.09
2023-09-23T09:00:01.909Z,87.68
2023-09-23T09:02:30.671Z,85.86
2023-09-23T09:04:58.471Z,84.53
2023-09-23T09:07:36.239Z,84.37
2023-09-23T09:10:04.344Z,83.44
2023-09-23T09:12:34.594Z,85.16
2023-09-23T09:15:01.846Z,85.48
2023-09-23T09:17:28.591Z,84.26
2023-09-23T09:19:55.166Z,85.51
2023-09-23T09:22:21.712Z,85.52
2023-09-23T09:24:48.234Z,84.81
2023-09-23T09:27:15.585Z,84.87
2023-09-23T09:29:42.852Z,84.84
2023-09-23T09:32:11.457Z,84.45
2023-09-23T09:34:46.723Z,84.76
2023-09-23T09:37:19.477Z,84.03
2023-09-23T09:39:54.397Z,83.41
2023-09-23T09:42:32.016Z,83.05
2023-09-23T09:44:58.845Z,82.74
2023-09-23T09:47:25.594Z,83.17
2023-09-23T09:49:53.632Z,83.36
2023-09-23T09:52:23.102Z,80.03
2023-09-23T09:54:55.433Z,80.52
2023-09-23T09:57:30.308Z,78.72
2023-09-23T10:00:01.252Z,79.42
2023-09-23T10:02:29.384Z,78.26
2023-09-23T10:05:03.614Z,76.61
2023-09-23T10:07:50.027Z,75.80
2023-09-23T10:10:16.546Z,74.37
2023-09-23T10:12:49.998Z,76.15
2023-09-23T10:15:25.549Z,74.82
2023-09-23T10:17:54.837Z,74.84
2023-09-23T10:20:24.771Z,74.64
2023-09-23T10:22:52.684Z,75.36
2023-09-23T10:25:19.216Z,77.35
2023-09-23T10:28:01.710Z,76.11
2023-09-23T10:30:28.204Z,75.61
2023-09-23T10:32:54.740Z,75.46
2023-09-23T10:35:24.603Z,76.57
2023-09-23T10:37:51.165Z,76.75
2023-09-23T10:40:18.595Z,75.64
2023-09-23T10:42:47.893Z,75.95
2023-09-23T10:45:15.736Z,74.34
2023-09-23T10:47:45.190Z,74.32
2023-09-23T10:50:12.013Z,75.23
2023-09-23T10:52:38.796Z,75.61
2023-09-23T10:55:06.771Z,76.45
2023-09-23T10:57:33.314Z,76.49
2023-09-23T11:00:00.552Z,76.24
2023-09-23T11:02:27.309Z,75.29
2023-09-23T11:04:55.612Z,76.79
2023-09-23T11:07:22.217Z,75.80
2023-09-23T11:09:48.765Z,76.07
2023-09-23T11:12:16.764Z,75.47
2023-09-23T11:14:47.174Z,74.63
2023-09-23T11:17:32.177Z,73.49
2023-09-23T11:20:00.296Z,73.50
2023-09-23T11:22:30.838Z,73.50
2023-09-23T11:24:58.979Z,73.05
2023-09-23T11:27:26.699Z,73.62
2023-09-23T11:29:53.806Z,71.81
2023-09-23T11:32:22.200Z,72.64
2023-09-23T11:34:50.018Z,70.96
2023-09-23T11:37:18.101Z,71.16
2023-09-23T11:39:44.886Z,71.05
2023-09-23T11:42:11.627Z,72.51
2023-09-23T11:44:38.176Z,72.46
2023-09-23T11:47:05.204Z,72.47
2023-09-23T11:49:31.710Z,73.41
2023-09-23T11:51:58.528Z,73.34
2023-09-23T11:54:25.462Z,73.94
2023-09-23T11:56:52.183Z,74.46
2023-09-23T11:59:21.708Z,74.57
2023-09-23T12:01:49.311Z,74.43
2023-09-23T12:04:15.881Z,75.51
2023-09-23T12:06:42.439Z,75.70
2023-09-23T12:09:11.052Z,75.60
2023-09-23T12:11:37.966Z,76.22
2023-09-23T12:14:04.661Z,76.40
2023-09-23T12:16:31.230Z,75.87
2023-09-23T12:18:57.850Z,75.85
2023-09-23T12:21:24.304Z,75.38
2023-09-23T12:23:52.329Z,75.40
2023-09-23T12:26:19.979Z,76.08
2023-09-23T12:28:46.743Z,76.88
2023-09-23T12:31:14.208Z,75.23
2023-09-23T12:33:42.082Z,76.19
2023-09-23T12:36:08.714Z,76.39
2023-09-23T12:38:35.354Z,76.62
2023-09-23T12:41:02.052Z,75.95
2023-09-23T12:43:29.305Z,75.88
2023-09-23T12:45:55.839Z,76.90
2023-09-23T12:48:22.516Z,76.22
2023-09-23T12:50:49.442Z,76.08
2023-09-23T12:53:16.057Z,76.16
2023-09-23T12:55:42.554Z,76.39
2023-09-23T12:58:09.316Z,76.54
2023-09-23T13:00:35.875Z,76.63
2023-09-23T13:03:02.585Z,77.10
2023-09-23T13:05:29.505Z,77.39
2023-09-23T13:07:56.078Z,77.41
2023-09-23T13:10:22.609Z,77.08
2023-09-23T13:12:50.486Z,77.23
2023-09-23T13:15:17.318Z,76.52
2023-09-23T13:17:45.027Z,75.70
2023-09-23T13:20:12.034Z,75.87
2023-09-23T13:22:38.573Z,76.33
2023-09-23T13:25:06.239Z,75.53
2023-09-23T13:27:34.259Z,75.43
2023-09-23T13:30:00.827Z,75.19
2023-09-23T13:32:27.410Z,75.33
2023-09-23T13:34:54.072Z,74.92
2023-09-23T13:37:20.583Z,75.10
2023-09-23T13:39:47.165Z,75.81
2023-09-23T13:42:14.222Z,75.43
2023-09-23T13:44:41.529Z,75.75
2023-09-23T13:47:08.147Z,75.87
2023-09-23T13:49:34.859Z,76.12
2023-09-23T13:52:01.825Z,75.92
2023-09-23T13:54:28.302Z,76.02
2023-09-23T13:56:54.818Z,75.72
2023-09-23T13:59:21.337Z,75.08
2023-09-23T14:01:47.924Z,75.40
2023-09-23T14:04:15.065Z,74.70
2023-09-23T14:06:41.907Z,74.98
2023-09-23T14:09:10.110Z,75.56
2023-09-23T14:11:37.304Z,75.58
2023-09-23T14:14:04.721Z,75.75
2023-09-23T14:16:31.919Z,75.59
2023-09-23T14:18:58.530Z,75.71
2023-09-23T14:21:25.880Z,75.09
2023-09-23T14:23:52.501Z,74.85
2023-09-23T14:26:19.032Z,74.83
2023-09-23T14:28:47.289Z,74.02
2023-09-23T14:31:14.152Z,75.10
2023-09-23T14:33:42.502Z,74.84
2023-09-23T14:36:09.026Z,74.80
2023-09-23T14:38:35.581Z,75.54
2023-09-23T14:41:02.332Z,75.18
2023-09-23T14:43:28.902Z,75.08
2023-09-23T14:45:56.137Z,75.35
2023-09-23T14:48:22.818Z,75.10
2023-09-23T14:50:50.268Z,75.51
2023-09-23T14:53:17.375Z,74.90
2023-09-23T14:55:44.527Z,75.01
2023-09-23T14:58:11.727Z,74.53
2023-09-23T15:00:38.547Z,74.80
2023-09-23T15:03:06.025Z,75.01
2023-09-23T15:05:32.727Z,74.99
2023-09-23T15:07:59.436Z,75.38
2023-09-23T15:10:25.909Z,74.83
2023-09-23T15:12:54.688Z,74.50
2023-09-23T15:15:21.444Z,74.42
2023-09-23T15:17:48.464Z,74.11
2023-09-23T15:20:15.030Z,74.32
2023-09-23T15:22:42.132Z,74.13
2023-09-23T15:25:09.817Z,74.08
2023-09-23T15:27:36.866Z,74.61
2023-09-23T15:30:08.393Z,74.63
2023-09-23T15:32:38.341Z,74.82
2023-09-23T15:35:06.444Z,75.11
2023-09-23T15:37:33.814Z,74.44
2023-09-23T15:40:00.460Z,74.58
2023-09-23T15:42:27.051Z,74.87
2023-09-23T15:44:54.211Z,74.70
2023-09-23T15:47:21.714Z,74.43
2023-09-23T15:49:48.945Z,74.64
2023-09-23T15:52:17.049Z,74.85
2023-09-23T15:54:43.706Z,74.41
2023-09-23T15:57:11.983Z,74.83
2023-09-23T15:59:38.981Z,74.83
2023-09-23T16:02:05.654Z,74.88
2023-09-23T16:04:33.127Z,75.06
2023-09-23T16:06:59.886Z,74.84
2023-09-23T16:09:26.567Z,75.00
2023-09-23T16:11:53.795Z,74.61
2023-09-23T16:14:20.449Z,74.60
2023-09-23T16:16:47.558Z,73.54
2023-09-23T16:19:14.200Z,74.35
2023-09-23T16:21:40.688Z,73.60
2023-09-23T16:24:07.356Z,73.98
2023-09-23T16:26:35.241Z,73.93
2023-09-23T16:29:02.318Z,73.39
2023-09-23T16:31:28.883Z,73.38
2023-09-23T16:33:56.937Z,73.03
2023-09-23T16:36:24.634Z,73.29
2023-09-23T16:38:51.980Z,73.21
2023-09-23T16:41:18.629Z,73.17
2023-09-23T16:43:46.270Z,73.43
2023-09-23T16:46:12.897Z,73.50
2023-09-23T16:48:39.474Z,73.36
2023-09-23T16:51:05.985Z,73.39
2023-09-23T16:53:33.500Z,73.41
2023-09-23T16:56:01.093Z,73.59
2023-09-23T16:58:27.871Z,73.67
2023-09-23T17:00:54.465Z,73.57
2023-09-23T17:03:22.534Z,73.36
2023-09-23T17:05:53.389Z,73.16
2023-09-23T17:08:20.981Z,73.06
2023-09-23T17:10:47.861Z,73.48
2023-09-23T17:13:15.791Z,73.07
2023-09-23T17:15:42.460Z,73.12
2023-09-23T17:18:09.167Z,73.34
2023-09-23T17:20:35.893Z,73.45
2023-09-23T17:23:02.645Z,73.32
2023-09-23T17:25:29.789Z,73.62
2023-09-23T17:27:56.319Z,73.47
2023-09-23T17:30:23.146Z,73.64
2023-09-23T17:32:49.849Z,73.73
2023-09-23T17:35:17.750Z,73.58
2023-09-23T17:37:44.270Z,75.18
2023-09-23T17:40:11.026Z,75.28
2023-09-23T17:42:37.926Z,75.57
2023-09-23T17:45:04.883Z,75.81
2023-09-23T17:47:31.778Z,76.54
2023-09-23T17:49:58.437Z,78.08
2023-09-23T17:52:25.039Z,79.52
2023-09-23T17:54:51.681Z,79.20
2023-09-23T17:57:18.285Z,77.81
2023-09-23T17:59:44.875Z,79.10
2023-09-23T18:02:11.532Z,81.33
2023-09-23T18:04:38.278Z,81.90
2023-09-23T18:07:05.664Z,82.81
2023-09-23T18:09:32.203Z,82.29
2023-09-23T18:11:58.700Z,82.92
2023-09-23T18:14:25.310Z,85.13
2023-09-23T18:16:51.834Z,84.40
2023-09-23T18:19:18.931Z,84.79
2023-09-23T18:21:46.155Z,82.93
2023-09-23T18:24:12.949Z,83.13
2023-09-23T18:26:40.334Z,82.28
2023-09-23T18:29:06.870Z,80.99
2023-09-23T18:31:33.814Z,81.25
2023-09-23T18:34:00.540Z,83.14
2023-09-23T18:36:27.215Z,81.90
2023-09-23T18:38:53.730Z,80.99
2023-09-23T18:41:20.292Z,80.87
2023-09-23T18:43:48.249Z,80.51
2023-09-23T18:46:14.986Z,80.83
2023-09-23T18:48:41.587Z,81.10
2023-09-23T18:51:08.182Z,80.81
2023-09-23T18:53:36.725Z,80.97
2023-09-23T18:56:04.691Z,81.69
2023-09-23T18:58:31.230Z,81.14
2023-09-23T19:00:57.882Z,81.58
2023-09-23T19:03:24.938Z,81.60
2023-09-23T19:05:51.669Z,81.68
2023-09-23T19:08:18.338Z,82.21
2023-09-23T19:10:45.340Z,82.12
2023-09-23T19:13:11.869Z,81.44
2023-09-23T19:15:38.455Z,81.88
2023-09-23T19:18:05.418Z,82.28
2023-09-23T19:20:32.484Z,81.88
2023-09-23T19:22:59.785Z,81.92
2023-09-23T19:25:26.422Z,82.07
2023-09-23T19:27:52.888Z,82.31
2023-09-23T19:30:19.558Z,82.28
2023-09-23T19:32:46.899Z,82.38
2023-09-23T19:35:14.106Z,82.40
2023-09-23T19:37:40.733Z,82.23
2023-09-23T19:40:08.100Z,82.33
2023-09-23T19:42:35.627Z,82.54
2023-09-23T19:45:05.059Z,82.80
2023-09-23T19:47:32.603Z,83.60
2023-09-23T19:50:00.801Z,82.55
2023-09-23T19:52:30.329Z,83.41
2023-09-23T19:54:57.257Z,83.64
2023-09-23T19:57:23.760Z,84.25
2023-09-23T19:59:50.369Z,83.62
2023-09-23T20:02:16.999Z,83.47
2023-09-23T20:04:46.262Z,84.60
2023-09-23T20:07:17.261Z,83.40
2023-09-23T20:09:43.821Z,83.33
2023-09-23T20:12:11.931Z,83.34
2023-09-23T20:14:38.954Z,83.89
2023-09-23T20:17:07.916Z,83.44
2023-09-23T20:19:34.835Z,84.07
2023-09-23T20:22:01.980Z,83.49
2023-09-23T20:24:28.495Z,82.71
2023-09-23T20:26:55.212Z,83.72
2023-09-23T20:29:22.940Z,82.92
2023-09-23T20:31:49.903Z,83.78
2023-09-23T20:34:17.979Z,84.35
2023-09-23T20:36:45.574Z,83.85
2023-09-23T20:39:12.391Z,83.49
2023-09-23T20:41:38.978Z,83.68
2023-09-23T20:44:05.858Z,83.60
2023-09-23T20:46:32.978Z,83.53
2023-09-23T20:49:00.353Z,83.83
2023-09-23T20:51:27.093Z,83.60
2023-09-23T20:53:53.719Z,83.29
2023-09-23T20:56:20.355Z,84.58
2023-09-23T20:58:46.858Z,84.18
2023-09-23T21:01:13.394Z,83.79
2023-09-23T21:03:40.080Z,84.28
2023-09-23T21:06:08.063Z,84.28
2023-09-23T21:08:34.623Z,84.64
2023-09-23T21:11:01.184Z,84.56
2023-09-23T21:13:28.328Z,84.51
2023-09-23T21:16:04.433Z,84.57
2023-09-23T21:18:31.415Z,85.25
2023-09-23T21:20:58.257Z,85.25
2023-09-23T21:23:24.831Z,84.98
2023-09-23T21:25:53.358Z,85.05
2023-09-23T21:28:20.391Z,85.18
2023-09-23T21:30:47.130Z,85.23
2023-09-23T21:33:13.808Z,85.50
2023-09-23T21:35:41.839Z,85.59
2023-09-23T21:38:09.031Z,85.26
2023-09-23T21:40:43.610Z,85.58
2023-09-23T21:43:10.100Z,85.76
2023-09-23T21:45:39.664Z,85.74
2023-09-23T21:48:08.285Z,85.77
2023-09-23T21:50:35.146Z,85.56
2023-09-23T21:53:01.799Z,85.37
2023-09-23T21:55:28.292Z,84.52
2023-09-23T21:57:54.829Z,84.76
2023-09-23T22:00:28.102Z,84.83
2023-09-23T22:02:57.376Z,85.51
2023-09-23T22:05:29.002Z,85.14
2023-09-23T22:07:56.698Z,85.09
2023-09-23T22:10:23.933Z,84.35
2023-09-23T22:12:53.651Z,84.78
2023-09-23T22:15:21.421Z,84.53
2023-09-23T22:17:48.918Z,84.71
2023-09-23T22:20:21.215Z,84.62
2023-09-23T22:22:48.531Z,84.82
2023-09-23T22:25:17.813Z,84.22
2023-09-23T22:27:44.784Z,84.76
2023-09-23T22:30:14.655Z,84.36
2023-09-23T22:32:41.634Z,84.26
2023-09-23T22:35:08.913Z,84.29
2023-09-23T22:37:35.435Z,83.81
2023-09-23T22:40:03.325Z,84.33
2023-09-23T22:42:30.181Z,84.83
2023-09-23T22:44:56.850Z,84.08
2023-09-23T22:47:23.819Z,84.48
2023-09-23T22:49:50.473Z,84.68
2023-09-23T22:52:16.985Z,84.12
2023-09-23T22:54:43.457Z,84.26
2023-09-23T22:57:11.894Z,84.05
2023-09-23T22:59:38.518Z,82.86
2023-09-23T23:02:05.141Z,82.83
2023-09-23T23:04:31.757Z,83.52
2023-09-23T23:06:58.514Z,83.60
2023-09-23T23:09:25.485Z,83.93
2023-09-23T23:11:52.045Z,82.95
2023-09-23T23:14:18.790Z,83.15
2023-09-23T23:16:45.425Z,83.25
2023-09-23T23:19:12.582Z,83.56
2023-09-23T23:21:39.199Z,83.67
2023-09-23T23:24:06.018Z,83.65
2023-09-23T23:26:32.596Z,83.96
2023-09-23T23:28:59.102Z,83.55
2023-09-23T23:31:25.621Z,83.47
2023-09-23T23:33:52.082Z,83.46
2023-09-23T23:36:18.957Z,83.86
2023-09-23T23:38:45.611Z,84.21
2023-09-23T23:41:12.086Z,83.92
2023-09-23T23:43:38.541Z,83.88
2023-09-23T23:46:05.226Z,83.69
2023-09-23T23:48:32.725Z,83.47
2023-09-23T23:51:06.470Z,84.63
2023-09-23T23:53:34.274Z,83.88
2023-09-23T23:56:01.889Z,84.19
2023-09-23T23:58:28.465Z,84.55
